Time;durP1;ratioP1;P1;durP2;ratioP2;P2;SDS_P1;SDS_P2;PMS_P1;PMS_P2;Temp;Humidity;BMP_temperature;BMP_pressure;BME280_temperature;BME280_humidity;BME280_pressure;Samples;Min_cycle;Max_cycle;Signal;HPM_P1;HPM_P2
2022/01/27 00:06:56;;;;;;;40.47;30.40;;;5.50;99.90;;;;;;5005013;28;20046;-61
2022/01/27 00:09:42;;;;;;;48.65;31.35;;;5.50;99.90;;;;;;5011175;28;20168;-62
2022/01/27 00:12:08;;;;;;;45.58;30.70;;;5.50;99.90;;;;;;4978655;28;20035;-61
2022/01/27 00:14:44;;;;;;;48.20;31.15;;;5.50;99.90;;;;;;4947442;28;20779;-61
2022/01/27 00:17:14;;;;;;;48.33;30.30;;;5.50;99.90;;;;;;4963812;28;20437;-61
2022/01/27 00:19:41;;;;;;;46.33;30.45;;;5.50;99.90;;;;;;4957007;28;20042;-61
2022/01/27 00:22:07;;;;;;;48.33;30.02;;;5.50;99.90;;;;;;4978131;28;20045;-61
2022/01/27 00:24:33;;;;;;;42.70;28.40;;;5.50;99.90;;;;;;4950110;28;20050;-61
2022/01/27 00:26:59;;;;;;;47.97;29.45;;;5.50;99.90;;;;;;4970864;28;20086;-61
2022/01/27 00:29:26;;;;;;;46.78;31.27;;;5.50;99.90;;;;;;4964628;28;20038;-62
2022/01/27 00:31:52;;;;;;;46.67;31.92;;;5.50;99.90;;;;;;4948696;28;20464;-61
2022/01/27 00:34:18;;;;;;;42.17;29.30;;;5.50;99.90;;;;;;4946329;28;20501;-61
2022/01/27 00:36:44;;;;;;;42.60;29.90;;;5.50;99.90;;;;;;4963321;28;20051;-61
2022/01/27 00:39:10;;;;;;;42.70;30.05;;;5.50;99.90;;;;;;4971983;28;20619;-61
2022/01/27 00:41:37;;;;;;;45.83;30.15;;;5.50;99.90;;;;;;4912190;28;20050;-61
2022/01/27 00:44:03;;;;;;;45.58;30.85;;;5.50;99.90;;;;;;4940076;28;20058;-61
2022/01/27 00:46:32;;;;;;;42.63;30.33;;;5.50;99.90;;;;;;4963655;28;20043;-61
2022/01/27 00:48:58;;;;;;;42.55;29.75;;;5.50;99.90;;;;;;4958945;28;20095;-61
2022/01/27 00:51:28;;;;;;;41.85;28.38;;;5.50;99.90;;;;;;4963586;28;20070;-61
2022/01/27 00:54:05;;;;;;;44.35;29.95;;;5.50;99.90;;;;;;4961151;28;20066;-62
2022/01/27 00:56:45;;;;;;;42.00;27.90;;;5.50;99.90;;;;;;4956741;28;20516;-62
2022/01/27 00:59:33;;;;;;;44.45;29.38;;;5.50;99.90;;;;;;4963812;28;20134;-61
2022/01/27 01:04:35;;;;;;;43.65;27.50;;;5.60;99.90;;;;;;4945331;28;20046;-62
2022/01/27 01:07:02;;;;;;;42.90;28.58;;;5.60;99.90;;;;;;4926954;28;20043;-61
2022/01/27 01:15:06;;;;;;;43.63;27.75;;;5.60;99.90;;;;;;4961935;28;20042;-60
2022/01/27 01:17:39;;;;;;;39.05;26.77;;;5.60;99.90;;;;;;4962992;28;20050;-60
2022/01/27 01:33:57;;;;;;;45.63;26.98;;;5.70;99.90;;;;;;4912518;28;20062;-50
2022/01/27 01:37:08;;;;;;;38.00;26.30;;;5.80;99.90;;;;;;4944084;28;20047;-47
2022/01/27 01:39:13;;;;;;;38.45;25.45;;;5.70;99.90;;;;;;4971130;28;20062;-49
2022/01/27 01:41:41;;;;;;;38.92;25.80;;;5.70;99.90;;;;;;4972414;28;20409;-47
2022/01/27 01:44:07;;;;;;;41.63;24.42;;;5.70;99.90;;;;;;4943411;28;20050;-51
2022/01/27 01:46:34;;;;;;;38.00;26.23;;;5.70;99.90;;;;;;4963306;28;20510;-48
2022/01/27 01:49:01;;;;;;;36.97;26.23;;;5.70;99.90;;;;;;4962550;28;20069;-50
2022/01/27 01:51:29;;;;;;;37.10;26.55;;;5.70;99.90;;;;;;4969911;28;20069;-50
2022/01/27 01:53:56;;;;;;;38.00;28.23;;;5.70;99.90;;;;;;4954369;28;20413;-46
2022/01/27 01:56:23;;;;;;;39.97;27.75;;;5.70;99.90;;;;;;4968418;28;20416;-47
2022/01/27 01:58:49;;;;;;;39.50;26.08;;;5.70;99.90;;;;;;4964986;28;20786;-45
2022/01/27 02:01:16;;;;;;;35.75;27.20;;;5.70;99.90;;;;;;4963561;28;20104;-48
2022/01/27 02:03:44;;;;;;;37.95;27.40;;;5.60;99.90;;;;;;4967273;28;20059;-47
2022/01/27 02:06:19;;;;;;;33.85;26.27;;;5.70;99.90;;;;;;4953129;28;20039;-48
2022/01/27 02:09:47;;;;;;;36.70;26.15;;;5.70;99.90;;;;;;4942289;28;20509;-47
2022/01/27 02:19:56;;;;;;;40.03;26.70;;;5.70;99.90;;;;;;4975700;28;20043;-45
2022/01/27 02:22:22;;;;;;;39.28;28.15;;;5.70;99.90;;;;;;4949431;28;20043;-46
2022/01/27 02:24:50;;;;;;;39.42;26.63;;;5.70;99.90;;;;;;4941779;28;20066;-46
2022/01/27 02:27:18;;;;;;;44.70;27.70;;;5.70;99.90;;;;;;4975634;28;20048;-49
2022/01/27 02:29:45;;;;;;;41.22;27.33;;;5.70;99.90;;;;;;4945382;28;20045;-49
2022/01/27 02:32:13;;;;;;;39.25;27.27;;;5.70;99.90;;;;;;4963064;28;20574;-60
2022/01/27 02:34:40;;;;;;;39.92;26.00;;;5.70;99.90;;;;;;4955545;28;20043;-60
2022/01/27 02:37:08;;;;;;;41.33;28.52;;;5.60;99.90;;;;;;4950057;28;20063;-60
2022/01/27 02:39:35;;;;;;;40.15;29.10;;;5.60;99.90;;;;;;4970039;28;20039;-60
2022/01/27 02:42:16;;;;;;;41.00;28.67;;;5.60;99.90;;;;;;4975944;28;20046;-60
2022/01/27 02:44:45;;;;;;;43.37;30.27;;;5.60;99.90;;;;;;4964126;28;20133;-60
2022/01/27 02:47:12;;;;;;;44.53;29.73;;;5.60;99.90;;;;;;4968390;28;20350;-60
2022/01/27 02:49:39;;;;;;;46.13;29.58;;;5.60;99.90;;;;;;4973460;28;20043;-46
2022/01/27 02:52:06;;;;;;;46.05;30.48;;;5.50;99.90;;;;;;4964296;28;20107;-60
2022/01/27 02:54:32;;;;;;;42.22;29.20;;;5.50;99.90;;;;;;4962819;28;20599;-59
2022/01/27 02:56:58;;;;;;;44.13;28.88;;;5.50;99.90;;;;;;4937796;28;20051;-46
2022/01/27 02:59:25;;;;;;;43.53;28.67;;;5.50;99.90;;;;;;4971173;28;20558;-50
2022/01/27 03:01:52;;;;;;;42.78;30.80;;;5.60;99.90;;;;;;4945021;28;20128;-60
2022/01/27 03:04:19;;;;;;;39.88;28.67;;;5.60;99.90;;;;;;4957197;28;20047;-60
2022/01/27 03:06:47;;;;;;;42.50;28.92;;;5.60;99.90;;;;;;4953533;28;20066;-61
2022/01/27 03:09:14;;;;;;;48.75;29.73;;;5.60;99.90;;;;;;4959555;28;20525;-61
2022/01/27 03:11:56;;;;;;;45.03;29.73;;;5.60;99.90;;;;;;4917074;28;20654;-61
2022/01/27 03:14:23;;;;;;;;;;;5.60;99.90;;;;;;4962533;28;20498;-60
2022/01/27 03:16:53;;;;;;;47.13;29.25;;;5.60;99.90;;;;;;4952829;28;19925;-60
2022/01/27 03:19:19;;;;;;;46.55;28.85;;;5.60;99.90;;;;;;4949008;28;21681;-49
2022/01/27 03:21:45;;;;;;;40.42;29.23;;;5.60;99.90;;;;;;4971884;28;20104;-46
2022/01/27 03:24:11;;;;;;;50.97;29.30;;;5.60;99.90;;;;;;4953626;28;20043;-46
2022/01/27 03:26:38;;;;;;;46.28;29.38;;;5.60;99.90;;;;;;4966760;28;20046;-45
2022/01/27 03:29:04;;;;;;;40.85;28.92;;;5.60;99.90;;;;;;4906363;28;20593;-46
2022/01/27 03:31:30;;;;;;;42.38;29.58;;;5.60;99.90;;;;;;4967583;28;20054;-47
2022/01/27 03:33:56;;;;;;;45.03;29.90;;;5.60;99.90;;;;;;4964025;28;20467;-49
2022/01/27 03:36:23;;;;;;;40.97;29.80;;;5.60;99.90;;;;;;4964206;28;20088;-46
2022/01/27 03:38:50;;;;;;;42.97;29.88;;;5.60;99.90;;;;;;4960048;28;20059;-51
2022/01/27 03:41:21;;;;;;;47.53;31.55;;;5.60;99.90;;;;;;4952322;28;20246;-49
2022/01/27 03:43:49;;;;;;;43.65;29.52;;;5.60;99.90;;;;;;4935085;28;20046;-46
2022/01/27 03:46:16;;;;;;;43.40;30.02;;;5.50;99.90;;;;;;4962527;28;20393;-60
2022/01/27 03:48:43;;;;;;;47.78;32.88;;;5.40;99.90;;;;;;4963001;28;20038;-60
2022/01/27 03:51:10;;;;;;;48.85;32.25;;;5.40;99.90;;;;;;4983960;28;20524;-61
2022/01/27 03:53:36;;;;;;;50.10;30.95;;;5.40;99.90;;;;;;4983203;28;20050;-60
2022/01/27 03:56:02;;;;;;;46.42;31.65;;;5.40;99.90;;;;;;4939390;28;20039;-61
2022/01/27 03:58:28;;;;;;;49.78;32.33;;;5.30;99.90;;;;;;4971027;28;20082;-51
2022/01/27 04:00:54;;;;;;;48.97;31.70;;;5.40;99.90;;;;;;4972979;28;20520;-61
2022/01/27 04:03:22;;;;;;;45.10;29.75;;;5.40;99.90;;;;;;4947221;28;20517;-48
2022/01/27 04:05:52;;;;;;;48.92;32.10;;;5.40;99.90;;;;;;4970483;28;20039;-50
2022/01/27 04:08:20;;;;;;;47.97;30.25;;;5.40;99.90;;;;;;4940891;28;20099;-60
2022/01/27 04:10:47;;;;;;;49.22;31.10;;;5.40;99.90;;;;;;4948480;28;20506;-60
2022/01/27 04:13:13;;;;;;;49.67;33.90;;;5.40;99.90;;;;;;4964174;28;20051;-60
2022/01/27 04:15:42;;;;;;;48.30;30.75;;;5.40;99.90;;;;;;4971213;28;20101;-60
2022/01/27 04:18:10;;;;;;;53.08;31.98;;;5.40;99.90;;;;;;4931673;28;20054;-60
2022/01/27 04:20:41;;;;;;;47.85;30.30;;;5.40;99.90;;;;;;4961855;28;20055;-60
2022/01/27 04:23:09;;;;;;;42.25;29.65;;;5.40;99.90;;;;;;4946341;28;20104;-61
2022/01/27 04:25:38;;;;;;;43.38;29.23;;;5.50;99.90;;;;;;4958741;28;20046;-60
2022/01/27 04:28:08;;;;;;;48.70;32.95;;;5.50;99.90;;;;;;4938458;28;20463;-61
2022/01/27 04:30:34;;;;;;;43.50;29.33;;;5.50;99.90;;;;;;4963830;28;20525;-60
2022/01/27 04:33:03;;;;;;;48.22;30.88;;;5.50;99.90;;;;;;4943721;28;20066;-60
2022/01/27 04:35:33;;;;;;;47.03;30.13;;;5.50;99.90;;;;;;4961986;28;20565;-60
2022/01/27 04:41:06;;;;;;;43.45;28.98;;;5.60;99.90;;;;;;4946133;28;20054;-61
2022/01/27 04:43:45;;;;;;;51.75;29.80;;;5.60;99.90;;;;;;4954691;28;20118;-60
2022/01/27 04:46:37;;;;;;;44.28;30.17;;;5.60;99.90;;;;;;4973882;28;20039;-45
2022/01/27 04:49:03;;;;;;;45.67;30.52;;;5.70;99.90;;;;;;4946963;28;20051;-61
2022/01/27 04:51:30;;;;;;;47.40;29.98;;;5.60;99.90;;;;;;4956178;28;20357;-61
2022/01/27 04:54:19;;;;;;;42.10;27.88;;;5.70;99.90;;;;;;4947780;28;20051;-60
2022/01/27 04:56:45;;;;;;;41.13;27.98;;;5.70;99.90;;;;;;4930112;28;20139;-61
2022/01/27 04:59:19;;;;;;;44.65;28.98;;;5.70;99.90;;;;;;4952169;28;20078;-60
2022/01/27 05:01:51;;;;;;;45.78;30.65;;;5.70;99.90;;;;;;4946359;28;20055;-60
2022/01/27 05:04:19;;;;;;;44.92;28.92;;;5.70;99.90;;;;;;4970003;28;20088;-60
2022/01/27 05:06:48;;;;;;;47.33;30.17;;;5.70;99.90;;;;;;4961530;28;20436;-60
2022/01/27 05:09:14;;;;;;;41.28;29.58;;;5.70;99.90;;;;;;4963970;28;20490;-60
2022/01/27 05:11:51;;;;;;;47.83;28.90;;;5.70;99.90;;;;;;4949031;28;20050;-61
2022/01/27 05:14:22;;;;;;;46.22;30.13;;;5.70;99.90;;;;;;4975631;28;20406;-60
2022/01/27 05:16:48;;;;;;;42.83;29.38;;;5.70;99.90;;;;;;4957007;28;20122;-60
2022/01/27 05:19:15;;;;;;;42.88;28.40;;;5.70;99.90;;;;;;4951518;28;20108;-60
2022/01/27 05:21:41;;;;;;;42.15;27.50;;;5.70;99.90;;;;;;4989717;28;20087;-60
2022/01/27 05:24:08;;;;;;;45.53;30.98;;;5.70;99.90;;;;;;4937162;28;20158;-60
2022/01/27 05:26:34;;;;;;;44.58;28.25;;;5.70;99.90;;;;;;4941702;28;20447;-47
2022/01/27 05:29:03;;;;;;;45.80;28.90;;;5.70;99.90;;;;;;4955242;28;20081;-61
2022/01/27 05:31:29;;;;;;;51.70;29.35;;;5.80;99.90;;;;;;4931419;28;20061;-60
2022/01/27 05:33:55;;;;;;;43.03;28.08;;;5.70;99.90;;;;;;4972302;28;20092;-61
2022/01/27 05:36:21;;;;;;;43.92;27.80;;;5.70;99.90;;;;;;4975040;28;20049;-49
2022/01/27 05:38:47;;;;;;;45.33;28.10;;;5.70;99.90;;;;;;4945588;28;20077;-47
2022/01/27 05:41:16;;;;;;;45.10;28.38;;;5.80;99.90;;;;;;4945152;28;20553;-60
2022/01/27 05:43:44;;;;;;;44.13;29.63;;;5.80;99.90;;;;;;4973505;28;20047;-46
2022/01/27 05:46:10;;;;;;;48.65;27.08;;;5.80;99.90;;;;;;4969002;28;20129;-46
2022/01/27 05:48:36;;;;;;;49.03;30.00;;;5.80;99.90;;;;;;4948575;28;20110;-60
2022/01/27 05:51:03;;;;;;;44.88;28.35;;;5.70;99.90;;;;;;4969864;28;20050;-60
2022/01/27 05:53:30;;;;;;;51.22;28.67;;;5.80;99.90;;;;;;4954060;28;20517;-61
2022/01/27 05:55:57;;;;;;;47.15;30.85;;;5.70;99.90;;;;;;4954341;28;20546;-61
2022/01/27 05:58:23;;;;;;;49.08;30.85;;;5.70;99.90;;;;;;4946266;28;20061;-49
2022/01/27 06:00:49;;;;;;;46.92;28.63;;;5.70;99.90;;;;;;4947738;28;20066;-48
2022/01/27 06:03:15;;;;;;;54.22;30.60;;;5.70;99.90;;;;;;4976908;28;20053;-47
2022/01/27 06:05:41;;;;;;;54.90;30.08;;;5.60;99.90;;;;;;4964617;28;20038;-46
2022/01/27 06:08:07;;;;;;;49.80;28.70;;;5.60;99.90;;;;;;4967509;28;20131;-54
2022/01/27 06:10:34;;;;;;;52.03;31.45;;;5.60;99.90;;;;;;4932423;28;20047;-60
2022/01/27 06:13:00;;;;;;;55.88;32.90;;;5.60;99.90;;;;;;4978832;28;20128;-47
2022/01/27 06:15:27;;;;;;;55.85;31.58;;;5.60;99.90;;;;;;4953525;28;20081;-49
2022/01/27 06:17:54;;;;;;;57.83;32.42;;;5.60;99.90;;;;;;4982997;28;20086;-47
2022/01/27 06:20:21;;;;;;;59.40;31.80;;;5.50;99.90;;;;;;5007068;28;20099;-46
2022/01/27 06:22:47;;;;;;;57.90;31.10;;;5.50;99.90;;;;;;4939078;28;20051;-46
2022/01/27 06:25:15;;;;;;;62.47;34.58;;;5.50;99.90;;;;;;4942762;28;20058;-46
2022/01/27 06:27:41;;;;;;;63.33;33.83;;;5.50;99.90;;;;;;4973822;28;20055;-49
2022/01/27 06:30:10;;;;;;;63.42;35.15;;;5.50;99.90;;;;;;4964947;28;20148;-48
2022/01/27 06:32:36;;;;;;;58.17;34.72;;;5.50;99.90;;;;;;4965024;28;20120;-60
2022/01/27 06:35:03;;;;;;;66.88;36.47;;;5.50;99.90;;;;;;4955783;28;20062;-60
2022/01/27 06:37:31;;;;;;;66.25;35.78;;;5.50;99.90;;;;;;4951055;28;20089;-50
2022/01/27 06:39:58;;;;;;;63.03;35.30;;;5.50;99.90;;;;;;4953135;28;20055;-49
2022/01/27 06:42:24;;;;;;;73.75;37.53;;;5.50;99.90;;;;;;4965626;28;20165;-52
2022/01/27 06:44:50;;;;;;;75.93;36.83;;;5.50;99.90;;;;;;4957917;28;20092;-50
2022/01/27 06:47:16;;;;;;;75.60;37.38;;;5.50;99.90;;;;;;4941978;28;20047;-47
2022/01/27 06:49:42;;;;;;;75.97;37.45;;;5.40;99.90;;;;;;4978117;28;20068;-60
2022/01/27 06:52:08;;;;;;;66.90;36.75;;;5.40;99.90;;;;;;5043422;28;20479;-60
2022/01/27 06:54:35;;;;;;;63.50;35.60;;;5.40;99.90;;;;;;4973530;28;20095;-46
2022/01/27 06:57:01;;;;;;;71.00;36.20;;;5.40;99.90;;;;;;4976677;28;20124;-47
2022/01/27 06:59:27;;;;;;;77.53;38.13;;;5.50;99.90;;;;;;5022981;28;20078;-60
2022/01/27 07:01:54;;;;;;;71.35;35.78;;;5.50;99.90;;;;;;4966680;28;20047;-60
2022/01/27 07:04:20;;;;;;;69.55;36.05;;;5.50;99.90;;;;;;5040758;28;20051;-59
2022/01/27 07:06:48;;;;;;;69.90;36.25;;;5.50;99.90;;;;;;4985190;28;20084;-60
2022/01/27 07:09:14;;;;;;;67.68;35.08;;;5.50;99.90;;;;;;5006290;28;20040;-60
2022/01/27 07:11:40;;;;;;;72.40;38.17;;;5.50;99.90;;;;;;5022193;28;20420;-61
2022/01/27 07:14:06;;;;;;;68.13;35.20;;;5.50;99.90;;;;;;5000831;28;20108;-60
2022/01/27 07:16:34;;;;;;;68.13;33.40;;;5.50;99.90;;;;;;5006289;28;20056;-59
2022/01/27 07:19:00;;;;;;;59.38;33.03;;;5.60;99.90;;;;;;5021172;28;20403;-59
2022/01/27 07:21:26;;;;;;;64.38;33.50;;;5.60;99.90;;;;;;5013052;28;20051;-60
2022/01/27 07:23:52;;;;;;;61.63;32.45;;;5.60;99.90;;;;;;4990296;28;20062;-60
2022/01/27 07:26:24;;;;;;;64.93;32.90;;;5.60;99.90;;;;;;5007283;28;20083;-61
2022/01/27 07:28:55;;;;;;;65.85;33.08;;;5.70;99.90;;;;;;5034720;28;20052;-61
2022/01/27 07:31:22;;;;;;;63.05;33.70;;;5.70;99.90;;;;;;4995165;28;20133;-62
2022/01/27 07:33:49;;;;;;;63.80;32.13;;;5.80;99.90;;;;;;5002321;28;20484;-61
2022/01/27 07:36:15;;;;;;;60.88;30.65;;;5.80;99.90;;;;;;5030078;28;20419;-59
2022/01/27 07:38:43;;;;;;;57.53;30.23;;;5.80;99.90;;;;;;5026101;28;20048;-60
2022/01/27 07:41:12;;;;;;;61.47;31.85;;;5.80;99.90;;;;;;5001023;28;20074;-60
2022/01/27 07:43:40;;;;;;;55.60;31.80;;;5.90;99.90;;;;;;5063500;28;20128;-60
2022/01/27 07:46:07;;;;;;;50.42;28.73;;;5.90;99.90;;;;;;5016860;28;20043;-60
2022/01/27 07:48:33;;;;;;;52.92;30.55;;;5.90;99.90;;;;;;5015175;28;20123;-60
2022/01/27 07:51:02;;;;;;;54.33;29.52;;;6.00;99.90;;;;;;5052554;28;20101;-60
2022/01/27 07:53:29;;;;;;;52.63;29.77;;;6.00;99.90;;;;;;4969964;28;20547;-60
2022/01/27 07:55:56;;;;;;;56.70;32.10;;;6.00;99.90;;;;;;4985462;28;20059;-60
2022/01/27 07:58:22;;;;;;;65.50;33.65;;;6.00;99.90;;;;;;4976076;28;20130;-62
2022/01/27 08:00:48;;;;;;;55.88;30.15;;;6.00;99.90;;;;;;5049835;28;20109;-60
2022/01/27 08:03:14;;;;;;;61.05;31.23;;;6.10;99.90;;;;;;5012692;28;20044;-60
2022/01/27 08:05:40;;;;;;;57.72;29.92;;;6.10;99.90;;;;;;5006162;28;20078;-60
2022/01/27 08:08:06;;;;;;;55.10;30.15;;;6.10;99.90;;;;;;4968337;28;20290;-60
2022/01/27 08:10:37;;;;;;;55.03;30.15;;;6.20;99.90;;;;;;4949391;28;20051;-60
2022/01/27 08:13:04;;;;;;;61.58;30.95;;;6.20;99.90;;;;;;4920833;28;20058;-60
2022/01/27 08:15:31;;;;;;;58.45;30.98;;;6.30;99.90;;;;;;4955015;28;20082;-60
2022/01/27 08:17:57;;;;;;;62.45;30.55;;;6.30;99.90;;;;;;4943836;28;20049;-60
2022/01/27 08:20:23;;;;;;;57.25;29.30;;;6.30;99.90;;;;;;4951465;28;20112;-60
2022/01/27 08:22:52;;;;;;;63.33;30.13;;;6.40;99.90;;;;;;4949071;28;20544;-50
2022/01/27 08:25:20;;;;;;;55.83;28.88;;;6.50;99.90;;;;;;4949019;28;20496;-60
2022/01/27 08:27:48;;;;;;;54.97;29.58;;;6.50;99.90;;;;;;4945678;28;20047;-47
2022/01/27 08:30:17;;;;;;;61.25;29.77;;;6.60;99.90;;;;;;4972189;28;20055;-60
2022/01/27 08:32:57;;;;;;;67.72;29.65;;;6.60;99.90;;;;;;4952408;28;20132;-60
2022/01/27 08:35:25;;;;;;;60.35;28.48;;;6.60;99.90;;;;;;4950723;28;20035;-45
2022/01/27 08:37:52;;;;;;;60.42;28.77;;;6.60;99.90;;;;;;4940832;28;20059;-60
2022/01/27 08:40:19;;;;;;;55.60;27.00;;;6.70;99.90;;;;;;4966901;28;20076;-51
2022/01/27 08:42:45;;;;;;;59.60;29.05;;;6.70;99.90;;;;;;4995117;28;20133;-47
2022/01/27 08:45:15;;;;;;;55.75;25.50;;;6.70;99.90;;;;;;4956396;28;20047;-46
2022/01/27 08:47:43;;;;;;;53.08;26.00;;;6.70;99.90;;;;;;4966066;28;20054;-62
2022/01/27 08:50:11;;;;;;;58.03;24.58;;;6.80;99.90;;;;;;4958899;28;20511;-62
2022/01/27 08:52:38;;;;;;;53.83;26.70;;;6.80;99.90;;;;;;4949091;28;20101;-62
2022/01/27 08:55:06;;;;;;;50.58;26.10;;;6.90;99.90;;;;;;4966529;28;20399;-62
2022/01/27 08:57:32;;;;;;;47.10;22.48;;;6.90;99.90;;;;;;4963507;28;20051;-62
2022/01/27 09:00:00;;;;;;;50.97;24.88;;;6.90;99.90;;;;;;4982044;28;20057;-48
2022/01/27 09:02:27;;;;;;;48.88;23.85;;;7.00;99.90;;;;;;4960333;28;20572;-62
2022/01/27 09:04:53;;;;;;;48.10;22.60;;;7.10;99.90;;;;;;4946008;28;20569;-51
2022/01/27 09:07:20;;;;;;;47.08;22.85;;;7.10;99.90;;;;;;4945537;28;20059;-47
2022/01/27 09:09:47;;;;;;;55.65;21.50;;;7.10;99.90;;;;;;4966752;28;20062;-47
2022/01/27 09:12:13;;;;;;;47.40;20.33;;;7.10;99.90;;;;;;4974659;28;20055;-48
2022/01/27 09:14:42;;;;;;;37.63;20.42;;;7.20;99.90;;;;;;4966277;28;20094;-63
2022/01/27 09:17:12;;;;;;;40.53;19.17;;;7.30;99.90;;;;;;4949287;28;20558;-62
2022/01/27 09:19:41;;;;;;;41.63;18.45;;;7.30;99.90;;;;;;4951239;28;20138;-62
2022/01/27 09:22:12;;;;;;;45.10;19.15;;;7.30;99.90;;;;;;4959869;28;20120;-50
2022/01/27 09:24:49;;;;;;;32.63;19.38;;;7.40;99.90;;;;;;4962170;28;20834;-48
2022/01/27 09:27:16;;;;;;;33.85;17.60;;;7.50;99.90;;;;;;4961398;28;20580;-47
2022/01/27 09:29:43;;;;;;;37.67;16.90;;;7.50;99.90;;;;;;4964196;28;20047;-46
2022/01/27 09:32:09;;;;;;;33.95;15.70;;;7.50;99.90;;;;;;4964065;28;20061;-48
2022/01/27 09:34:36;;;;;;;32.65;15.15;;;7.60;99.90;;;;;;4943150;28;20122;-62
2022/01/27 09:37:04;;;;;;;33.20;14.48;;;7.60;99.90;;;;;;4951683;28;20039;-62
2022/01/27 09:39:32;;;;;;;33.83;13.65;;;7.60;99.90;;;;;;4959702;28;20054;-47
2022/01/27 09:42:00;;;;;;;28.52;12.90;;;7.70;99.90;;;;;;4960844;28;20050;-63
2022/01/27 09:44:30;;;;;;;28.23;12.77;;;7.70;99.90;;;;;;4977962;28;20467;-47
2022/01/27 09:47:02;;;;;;;36.15;14.07;;;7.80;99.90;;;;;;4957982;28;20461;-47
2022/01/27 09:49:33;;;;;;;27.38;11.90;;;7.90;99.90;;;;;;5019021;28;20490;-62
2022/01/27 09:52:00;;;;;;;27.88;12.40;;;8.00;99.90;;;;;;4947946;28;20091;-51
2022/01/27 09:54:27;;;;;;;29.48;14.02;;;8.10;99.90;;;;;;4949257;28;20061;-48
2022/01/27 09:56:53;;;;;;;23.02;10.95;;;8.00;99.90;;;;;;4958480;28;20054;-46
2022/01/27 09:59:21;;;;;;;25.60;11.63;;;8.10;99.90;;;;;;4964038;28;20043;-63
2022/01/27 10:02:04;;;;;;;28.42;10.18;;;8.10;99.90;;;;;;4958933;28;20078;-63
2022/01/27 10:04:51;;;;;;;23.35;9.27;;;8.10;99.90;;;;;;4957806;28;20082;-49
2022/01/27 10:07:23;;;;;;;26.92;11.35;;;8.10;99.90;;;;;;4994670;28;20041;-63
2022/01/27 10:09:58;;;;;;;21.77;10.30;;;8.20;99.90;;;;;;4971198;28;20043;-62
2022/01/27 10:12:35;;;;;;;19.92;9.10;;;8.20;99.90;;;;;;4942681;28;20051;-50
2022/01/27 10:15:09;;;;;;;22.42;8.95;;;8.20;99.90;;;;;;4949129;28;20422;-63
2022/01/27 10:17:38;;;;;;;29.50;10.80;;;8.20;99.90;;;;;;4960636;28;20058;-62
2022/01/27 10:20:18;;;;;;;22.80;9.15;;;8.20;99.90;;;;;;4942042;28;20056;-62
2022/01/27 10:23:11;;;;;;;22.02;8.32;;;8.30;99.90;;;;;;4952411;28;20270;-62
2022/01/27 10:25:46;;;;;;;25.10;10.40;;;8.30;99.90;;;;;;4967406;28;20523;-62
2022/01/27 10:31:07;;;;;;;20.65;8.75;;;8.30;99.90;;;;;;4945967;28;20130;-50
2022/01/27 10:33:50;;;;;;;20.23;9.30;;;8.30;99.90;;;;;;4959251;28;20047;-50
2022/01/27 10:36:36;;;;;;;20.42;9.45;;;8.40;99.90;;;;;;4960062;28;21199;-63
2022/01/27 10:39:05;;;;;;;24.27;8.80;;;8.30;99.90;;;;;;4956508;28;20055;-63
2022/01/27 10:41:35;;;;;;;22.13;9.93;;;8.40;99.90;;;;;;4957170;28;20470;-62
2022/01/27 10:44:16;;;;;;;22.30;9.32;;;8.40;99.90;;;;;;4956498;28;20043;-63
2022/01/27 10:47:09;;;;;;;21.40;8.60;;;8.40;99.90;;;;;;4957496;28;20032;-62
2022/01/27 10:49:41;;;;;;;24.00;9.38;;;8.50;99.90;;;;;;4976098;28;20051;-62
2022/01/27 10:52:35;;;;;;;20.52;8.57;;;8.40;99.90;;;;;;4954500;28;20039;-63
2022/01/27 10:55:11;;;;;;;21.13;8.50;;;8.50;99.90;;;;;;5038153;28;20058;-62
2022/01/27 10:57:38;;;;;;;23.23;9.55;;;8.50;99.90;;;;;;4993436;28;20040;-61
2022/01/27 11:00:14;;;;;;;25.23;8.68;;;8.50;99.90;;;;;;4961603;28;20117;-62
2022/01/27 11:02:56;;;;;;;21.63;7.75;;;8.50;99.90;;;;;;4990670;28;20129;-47
2022/01/27 11:05:24;;;;;;;;;;;8.50;99.90;;;;;;4963218;28;20105;-48
2022/01/27 11:07:50;;;;;;;20.27;6.82;;;8.50;99.90;;;;;;4951602;28;19930;-46
2022/01/27 11:10:18;;;;;;;17.42;7.32;;;8.60;99.90;;;;;;4943357;28;20057;-62
2022/01/27 11:12:45;;;;;;;22.30;7.75;;;8.50;99.90;;;;;;4931465;28;20663;-62
2022/01/27 11:15:13;;;;;;;16.08;7.40;;;8.50;99.90;;;;;;4945324;28;20059;-63
2022/01/27 11:17:41;;;;;;;22.35;7.32;;;8.50;99.90;;;;;;4945118;28;20439;-64
2022/01/27 11:23:34;;;;;;;14.77;5.97;;;8.60;99.90;;;;;;5051736;28;20044;-46
2022/01/27 11:25:58;;;;;;;20.10;6.68;;;8.60;99.90;;;;;;5067389;28;20097;-62
2022/01/27 11:28:26;;;;;;;19.50;6.68;;;8.60;99.90;;;;;;5019871;28;20544;-62
2022/01/27 11:31:10;;;;;;;18.23;6.82;;;8.60;99.90;;;;;;4955960;28;20056;-62
2022/01/27 11:33:37;;;;;;;23.02;7.00;;;8.60;99.90;;;;;;4966034;28;20086;-62
2022/01/27 11:36:09;;;;;;;21.35;6.88;;;8.70;99.90;;;;;;4932704;28;20421;-62
2022/01/27 11:38:42;;;;;;;19.10;5.95;;;8.70;99.90;;;;;;4966636;28;20680;-62
2022/01/27 11:41:43;;;;;;;21.08;6.20;;;8.80;99.90;;;;;;4953630;28;20044;-62
2022/01/27 11:44:33;;;;;;;22.58;6.18;;;8.90;99.90;;;;;;4946790;28;20051;-62
2022/01/27 11:47:18;;;;;;;21.52;6.50;;;8.90;99.90;;;;;;4971724;28;20073;-62
2022/01/27 11:50:07;;;;;;;19.45;5.60;;;9.00;99.90;;;;;;4963306;28;20128;-50
2022/01/27 11:52:46;;;;;;;19.08;4.63;;;9.00;99.90;;;;;;4946843;28;20078;-49
2022/01/27 11:55:24;;;;;;;17.42;5.13;;;9.00;99.90;;;;;;4946097;28;20055;-62
2022/01/27 11:58:11;;;;;;;19.70;5.10;;;9.00;99.90;;;;;;4962135;28;20055;-62
2022/01/27 12:00:38;;;;;;;20.42;4.35;;;8.90;99.90;;;;;;4967176;28;20059;-49
2022/01/27 12:03:08;;;;;;;19.23;4.70;;;8.90;99.90;;;;;;4961101;28;20169;-63
2022/01/27 12:05:39;;;;;;;20.92;6.72;;;8.90;99.90;;;;;;4961366;28;20129;-62
2022/01/27 12:08:15;;;;;;;20.20;4.93;;;8.90;99.90;;;;;;4972372;28;20047;-62
2022/01/27 12:11:10;;;;;;;24.00;5.00;;;8.90;99.90;;;;;;4964869;28;20066;-62
2022/01/27 12:13:36;;;;;;;19.77;4.53;;;9.00;99.90;;;;;;4964573;28;20050;-62
2022/01/27 12:19:08;;;;;;;18.27;4.72;;;9.00;99.90;;;;;;4957912;28;20047;-63
2022/01/27 12:21:54;;;;;;;16.60;4.13;;;9.00;99.90;;;;;;4946088;28;20078;-62
2022/01/27 12:24:28;;;;;;;16.42;4.30;;;9.10;99.90;;;;;;4927980;29;20150;-63
2022/01/27 12:27:06;;;;;;;25.67;4.65;;;9.10;99.90;;;;;;4963608;28;20039;-62
2022/01/27 12:29:45;;;;;;;19.27;5.00;;;9.20;99.90;;;;;;5007790;28;20123;-62
2022/01/27 12:32:17;;;;;;;22.40;4.47;;;9.20;99.90;;;;;;5064525;28;20056;-63
2022/01/27 12:34:52;;;;;;;15.52;4.35;;;9.20;99.90;;;;;;4956470;28;20114;-62
2022/01/27 12:37:24;;;;;;;18.55;5.07;;;9.20;99.90;;;;;;4946021;28;20445;-62
2022/01/27 12:39:53;;;;;;;11.80;4.50;;;9.20;99.90;;;;;;4962291;28;20053;-62
2022/01/27 12:42:25;;;;;;;15.73;5.10;;;9.20;99.90;;;;;;4964393;28;20061;-62
2022/01/27 12:44:56;;;;;;;15.35;5.40;;;9.30;99.90;;;;;;4950670;28;20086;-62
2022/01/27 12:47:23;;;;;;;15.77;4.07;;;9.20;99.90;;;;;;4990433;28;20494;-47
2022/01/27 12:50:06;;;;;;;17.98;5.28;;;9.30;99.90;;;;;;4995565;28;20047;-45
2022/01/27 12:52:39;;;;;;;20.92;3.83;;;9.30;99.90;;;;;;4956535;28;20121;-45
2022/01/27 12:55:10;;;;;;;18.55;4.30;;;9.30;99.90;;;;;;4944862;28;20055;-46
2022/01/27 12:57:37;;;;;;;17.98;3.97;;;9.30;99.90;;;;;;4944231;28;20051;-46
2022/01/27 13:00:11;;;;;;;19.98;4.40;;;9.30;99.90;;;;;;4938788;28;20055;-47
2022/01/27 13:02:37;;;;;;;21.08;3.65;;;9.20;99.90;;;;;;4964325;28;20051;-48
2022/01/27 13:05:04;;;;;;;20.48;4.45;;;9.20;99.90;;;;;;4962842;28;20053;-52
2022/01/27 13:07:33;;;;;;;25.15;4.95;;;9.20;99.90;;;;;;4953372;28;20727;-46
2022/01/27 13:10:08;;;;;;;15.23;3.80;;;9.20;99.90;;;;;;4948309;28;20047;-62
2022/01/27 13:12:55;;;;;;;23.60;4.72;;;9.20;99.90;;;;;;5043092;28;20432;-62
2022/01/27 13:15:25;;;;;;;23.85;5.28;;;9.10;99.90;;;;;;5065262;28;20045;-62
2022/01/27 13:18:15;;;;;;;21.70;4.18;;;9.20;99.90;;;;;;4995216;28;20477;-62
2022/01/27 13:20:44;;;;;;;17.58;4.40;;;9.10;99.90;;;;;;4947479;28;20057;-47
2022/01/27 13:25:44;;;;;;;20.90;4.20;;;9.20;99.90;;;;;;5062280;28;20036;-61
2022/01/27 13:28:24;;;;;;;18.17;4.25;;;9.20;99.90;;;;;;4962079;28;20892;-48
2022/01/27 13:30:53;;;;;;;17.27;4.20;;;9.20;99.90;;;;;;4962373;28;20468;-49
2022/01/27 13:33:22;;;;;;;20.67;4.85;;;9.20;99.90;;;;;;4971205;28;20038;-50
2022/01/27 13:35:49;;;;;;;21.02;4.53;;;9.20;99.90;;;;;;4962325;28;20055;-45
2022/01/27 13:38:29;;;;;;;18.05;4.20;;;9.20;99.90;;;;;;4975087;28;20573;-46
2022/01/27 13:43:49;;;;;;;;;;;9.30;99.90;;;;;;4962415;28;20498;-48
2022/01/27 13:46:34;;;;;;;22.00;4.10;;;9.40;99.90;;;;;;4947864;28;19929;-48
2022/01/27 13:49:34;;;;;;;21.50;4.45;;;9.50;99.90;;;;;;4965041;28;20050;-48